sensor_id;sensor_type;location;lat;lon;timestamp;pressure;altitude;pressure_sealevel;temperature;humidity
66176;BME280;52977;44.816;20.538;2022-11-20T00:00:52;98954.25;;;8.15;100.00
66176;BME280;52977;44.816;20.538;2022-11-20T00:03:18;98832.31;;;7.40;100.00
66176;BME280;52977;44.816;20.538;2022-11-20T00:05:44;98932.06;;;8.04;100.00
66176;BME280;52977;44.816;20.538;2022-11-20T00:08:11;98924.56;;;7.92;100.00
66176;BME280;52977;44.816;20.538;2022-11-20T00:10:38;98945.16;;;8.11;100.00
66176;BME280;52977;44.816;20.538;2022-11-20T00:13:05;98957.59;;;8.20;100.00
66176;BME280;52977;44.816;20.538;2022-11-20T00:15:31;98954.50;;;8.39;100.00
66176;BME280;52977;44.816;20.538;2022-11-20T00:17:57;98909.97;;;8.14;100.00
66176;BME280;52977;44.816;20.538;2022-11-20T00:20:23;98972.56;;;8.53;100.00
66176;BME280;52977;44.816;20.538;2022-11-20T00:22:49;99000.28;;;8.76;100.00
66176;BME280;52977;44.816;20.538;2022-11-20T00:25:16;99018.66;;;8.88;100.00
66176;BME280;52977;44.816;20.538;2022-11-20T00:27:42;98997.50;;;8.64;100.00
66176;BME280;52977;44.816;20.538;2022-11-20T00:30:09;98949.63;;;8.63;100.00
66176;BME280;52977;44.816;20.538;2022-11-20T00:32:34;99001.28;;;8.71;100.00
66176;BME280;52977;44.816;20.538;2022-11-20T00:35:00;99007.06;;;9.00;100.00
66176;BME280;52977;44.816;20.538;2022-11-20T00:37:26;98991.63;;;8.83;100.00
66176;BME280;52977;44.816;20.538;2022-11-20T00:39:52;98988.84;;;8.62;100.00
66176;BME280;52977;44.816;20.538;2022-11-20T00:42:19;98985.06;;;8.84;100.00
66176;BME280;52977;44.816;20.538;2022-11-20T00:44:45;98981.72;;;9.08;100.00
66176;BME280;52977;44.816;20.538;2022-11-20T00:47:12;98945.56;;;8.78;100.00
66176;BME280;52977;44.816;20.538;2022-11-20T00:49:38;99006.97;;;9.17;100.00
66176;BME280;52977;44.816;20.538;2022-11-20T00:52:04;98974.22;;;9.05;100.00
66176;BME280;52977;44.816;20.538;2022-11-20T00:54:30;98935.66;;;8.73;100.00
66176;BME280;52977;44.816;20.538;2022-11-20T00:56:56;98888.91;;;8.50;100.00
66176;BME280;52977;44.816;20.538;2022-11-20T00:59:22;98861.47;;;8.64;100.00
66176;BME280;52977;44.816;20.538;2022-11-20T01:01:48;98800.41;;;8.44;100.00
66176;BME280;52977;44.816;20.538;2022-11-20T01:04:14;98771.47;;;8.69;100.00
66176;BME280;52977;44.816;20.538;2022-11-20T01:06:41;98712.53;;;8.73;100.00
66176;BME280;52977;44.816;20.538;2022-11-20T01:09:12;98670.88;;;8.39;100.00
66176;BME280;52977;44.816;20.538;2022-11-20T01:11:42;98694.50;;;7.96;100.00
66176;BME280;52977;44.816;20.538;2022-11-20T01:14:17;98752.09;;;8.19;100.00
66176;BME280;52977;44.816;20.538;2022-11-20T01:16:46;98738.97;;;8.51;100.00
66176;BME280;52977;44.816;20.538;2022-11-20T01:19:16;98719.94;;;8.43;100.00
66176;BME280;52977;44.816;20.538;2022-11-20T01:21:45;98716.00;;;8.40;100.00
66176;BME280;52977;44.816;20.538;2022-11-20T01:24:13;98708.69;;;8.32;100.00
66176;BME280;52977;44.816;20.538;2022-11-20T01:26:42;98757.56;;;8.41;100.00
66176;BME280;52977;44.816;20.538;2022-11-20T01:29:20;98776.84;;;8.27;100.00
66176;BME280;52977;44.816;20.538;2022-11-20T01:31:46;98767.38;;;8.03;100.00
66176;BME280;52977;44.816;20.538;2022-11-20T01:34:16;98815.63;;;8.45;100.00
66176;BME280;52977;44.816;20.538;2022-11-20T01:36:43;98741.91;;;8.16;100.00
66176;BME280;52977;44.816;20.538;2022-11-20T01:39:13;98824.22;;;8.77;100.00
66176;BME280;52977;44.816;20.538;2022-11-20T01:41:40;98828.59;;;8.90;100.00
66176;BME280;52977;44.816;20.538;2022-11-20T01:47:21;98855.88;;;9.02;100.00
66176;BME280;52977;44.816;20.538;2022-11-20T01:49:56;98837.38;;;9.17;100.00
66176;BME280;52977;44.816;20.538;2022-11-20T01:52:50;98834.69;;;9.29;100.00
66176;BME280;52977;44.816;20.538;2022-11-20T01:55:20;98830.16;;;9.33;100.00
66176;BME280;52977;44.816;20.538;2022-11-20T01:57:48;98827.91;;;9.35;100.00
66176;BME280;52977;44.816;20.538;2022-11-20T02:00:17;98807.38;;;9.38;100.00
66176;BME280;52977;44.816;20.538;2022-11-20T02:02:55;98777.00;;;9.15;100.00
66176;BME280;52977;44.816;20.538;2022-11-20T02:05:32;98820.50;;;9.02;100.00
66176;BME280;52977;44.816;20.538;2022-11-20T02:08:02;98829.59;;;9.06;100.00
66176;BME280;52977;44.816;20.538;2022-11-20T02:10:29;98824.22;;;8.98;100.00
66176;BME280;52977;44.816;20.538;2022-11-20T02:12:55;98836.44;;;9.13;100.00
66176;BME280;52977;44.816;20.538;2022-11-20T02:15:40;98847.59;;;8.99;100.00
66176;BME280;52977;44.816;20.538;2022-11-20T02:18:07;98822.28;;;8.98;100.00
66176;BME280;52977;44.816;20.538;2022-11-20T02:20:35;98810.63;;;8.77;100.00
66176;BME280;52977;44.816;20.538;2022-11-20T02:25:58;98824.50;;;8.63;100.00
66176;BME280;52977;44.816;20.538;2022-11-20T02:28:27;98813.69;;;8.54;100.00
66176;BME280;52977;44.816;20.538;2022-11-20T02:30:53;98812.84;;;8.53;100.00
66176;BME280;52977;44.816;20.538;2022-11-20T02:33:20;98809.88;;;8.46;100.00
66176;BME280;52977;44.816;20.538;2022-11-20T02:35:46;98832.25;;;8.73;100.00
66176;BME280;52977;44.816;20.538;2022-11-20T02:38:14;98818.47;;;8.78;100.00
66176;BME280;52977;44.816;20.538;2022-11-20T02:40:41;98766.50;;;8.41;100.00
66176;BME280;52977;44.816;20.538;2022-11-20T02:43:07;98799.94;;;8.93;100.00
66176;BME280;52977;44.816;20.538;2022-11-20T02:45:33;98784.63;;;8.67;100.00
66176;BME280;52977;44.816;20.538;2022-11-20T02:47:59;98811.56;;;8.60;100.00
66176;BME280;52977;44.816;20.538;2022-11-20T02:50:26;98801.19;;;8.53;100.00
66176;BME280;52977;44.816;20.538;2022-11-20T02:52:52;98772.19;;;8.27;100.00
66176;BME280;52977;44.816;20.538;2022-11-20T02:55:18;98817.78;;;8.60;100.00
66176;BME280;52977;44.816;20.538;2022-11-20T02:57:44;98774.31;;;8.21;100.00
66176;BME280;52977;44.816;20.538;2022-11-20T03:00:11;98811.53;;;8.30;100.00
66176;BME280;52977;44.816;20.538;2022-11-20T03:02:38;98799.59;;;8.22;100.00
66176;BME280;52977;44.816;20.538;2022-11-20T03:05:03;98821.09;;;8.45;100.00
66176;BME280;52977;44.816;20.538;2022-11-20T03:07:30;98837.09;;;8.67;100.00
66176;BME280;52977;44.816;20.538;2022-11-20T03:09:56;98841.78;;;8.58;100.00
66176;BME280;52977;44.816;20.538;2022-11-20T03:12:22;98677.66;;;7.52;100.00
66176;BME280;52977;44.816;20.538;2022-11-20T03:14:48;98837.06;;;8.46;100.00
66176;BME280;52977;44.816;20.538;2022-11-20T03:17:15;98826.00;;;8.43;100.00
66176;BME280;52977;44.816;20.538;2022-11-20T03:19:41;98825.06;;;8.38;100.00
66176;BME280;52977;44.816;20.538;2022-11-20T03:22:07;98801.66;;;8.25;100.00
66176;BME280;52977;44.816;20.538;2022-11-20T03:24:33;98812.41;;;8.43;100.00
66176;BME280;52977;44.816;20.538;2022-11-20T03:26:59;98815.94;;;8.43;100.00
66176;BME280;52977;44.816;20.538;2022-11-20T03:29:25;98767.94;;;8.17;100.00
66176;BME280;52977;44.816;20.538;2022-11-20T03:31:51;98757.66;;;8.23;100.00
66176;BME280;52977;44.816;20.538;2022-11-20T03:34:17;98801.31;;;8.57;100.00
66176;BME280;52977;44.816;20.538;2022-11-20T03:36:44;98831.56;;;8.55;100.00
66176;BME280;52977;44.816;20.538;2022-11-20T03:39:10;98832.78;;;8.66;100.00
66176;BME280;52977;44.816;20.538;2022-11-20T03:41:38;98820.94;;;8.62;100.00
66176;BME280;52977;44.816;20.538;2022-11-20T03:44:08;98788.16;;;8.37;100.00
66176;BME280;52977;44.816;20.538;2022-11-20T03:46:34;98801.66;;;8.55;100.00
66176;BME280;52977;44.816;20.538;2022-11-20T03:49:01;98803.13;;;8.74;100.00
66176;BME280;52977;44.816;20.538;2022-11-20T03:51:32;98787.66;;;8.65;100.00
66176;BME280;52977;44.816;20.538;2022-11-20T03:53:59;98829.41;;;9.12;100.00
66176;BME280;52977;44.816;20.538;2022-11-20T03:56:30;98835.28;;;9.14;100.00
66176;BME280;52977;44.816;20.538;2022-11-20T03:58:57;98828.00;;;9.05;100.00
66176;BME280;52977;44.816;20.538;2022-11-20T04:01:26;98809.50;;;8.99;100.00
66176;BME280;52977;44.816;20.538;2022-11-20T04:03:54;98794.56;;;8.84;100.00
66176;BME280;52977;44.816;20.538;2022-11-20T04:06:27;98802.88;;;8.87;100.00
66176;BME280;52977;44.816;20.538;2022-11-20T04:08:57;98801.19;;;8.95;100.00
66176;BME280;52977;44.816;20.538;2022-11-20T04:11:26;98774.44;;;8.76;100.00
66176;BME280;52977;44.816;20.538;2022-11-20T04:13:54;98814.06;;;9.07;100.00
66176;BME280;52977;44.816;20.538;2022-11-20T04:16:23;98777.91;;;8.85;100.00
66176;BME280;52977;44.816;20.538;2022-11-20T04:18:54;98816.75;;;8.74;100.00
66176;BME280;52977;44.816;20.538;2022-11-20T04:21:21;98815.06;;;8.60;100.00
66176;BME280;52977;44.816;20.538;2022-11-20T04:23:48;98815.81;;;8.69;100.00
66176;BME280;52977;44.816;20.538;2022-11-20T04:26:15;98812.16;;;8.65;100.00
66176;BME280;52977;44.816;20.538;2022-11-20T04:28:41;98829.41;;;8.69;100.00
66176;BME280;52977;44.816;20.538;2022-11-20T04:31:13;98837.63;;;8.82;100.00
66176;BME280;52977;44.816;20.538;2022-11-20T04:33:40;98741.78;;;8.34;100.00
66176;BME280;52977;44.816;20.538;2022-11-20T04:36:15;98815.66;;;8.87;100.00
66176;BME280;52977;44.816;20.538;2022-11-20T04:38:42;98829.00;;;9.01;100.00
66176;BME280;52977;44.816;20.538;2022-11-20T04:41:14;98783.53;;;8.59;100.00
66176;BME280;52977;44.816;20.538;2022-11-20T04:43:41;98831.22;;;8.86;100.00
66176;BME280;52977;44.816;20.538;2022-11-20T04:46:07;98819.84;;;8.84;100.00
66176;BME280;52977;44.816;20.538;2022-11-20T04:48:34;98795.50;;;8.67;100.00
66176;BME280;52977;44.816;20.538;2022-11-20T04:51:03;98781.63;;;8.60;100.00
66176;BME280;52977;44.816;20.538;2022-11-20T04:53:29;98838.28;;;8.79;100.00
66176;BME280;52977;44.816;20.538;2022-11-20T04:56:03;98847.91;;;8.76;100.00
66176;BME280;52977;44.816;20.538;2022-11-20T04:58:30;98841.94;;;8.83;100.00
66176;BME280;52977;44.816;20.538;2022-11-20T05:01:25;98863.59;;;8.79;100.00
66176;BME280;52977;44.816;20.538;2022-11-20T05:03:52;98873.22;;;8.77;100.00
66176;BME280;52977;44.816;20.538;2022-11-20T05:06:20;98881.56;;;8.71;100.00
66176;BME280;52977;44.816;20.538;2022-11-20T05:08:47;98871.69;;;8.67;100.00
66176;BME280;52977;44.816;20.538;2022-11-20T05:11:16;98878.56;;;8.64;100.00
66176;BME280;52977;44.816;20.538;2022-11-20T05:13:42;98891.78;;;8.75;100.00
66176;BME280;52977;44.816;20.538;2022-11-20T05:16:11;98889.97;;;8.87;100.00
66176;BME280;52977;44.816;20.538;2022-11-20T05:18:38;98878.84;;;8.71;100.00
66176;BME280;52977;44.816;20.538;2022-11-20T05:21:06;98894.66;;;8.78;100.00
66176;BME280;52977;44.816;20.538;2022-11-20T05:23:33;98886.00;;;8.76;100.00
66176;BME280;52977;44.816;20.538;2022-11-20T05:26:00;98878.94;;;8.84;100.00
66176;BME280;52977;44.816;20.538;2022-11-20T05:28:28;98854.16;;;8.55;100.00
66176;BME280;52977;44.816;20.538;2022-11-20T05:30:55;98907.59;;;8.81;100.00
66176;BME280;52977;44.816;20.538;2022-11-20T05:33:21;98908.53;;;8.85;100.00
66176;BME280;52977;44.816;20.538;2022-11-20T05:35:47;98741.78;;;7.74;100.00
66176;BME280;52977;44.816;20.538;2022-11-20T05:38:14;98897.81;;;8.80;100.00
66176;BME280;52977;44.816;20.538;2022-11-20T05:40:41;98885.63;;;8.65;100.00
66176;BME280;52977;44.816;20.538;2022-11-20T05:43:07;98902.06;;;8.69;100.00
66176;BME280;52977;44.816;20.538;2022-11-20T05:45:33;98891.81;;;8.36;100.00
66176;BME280;52977;44.816;20.538;2022-11-20T05:47:59;98894.19;;;8.46;100.00
66176;BME280;52977;44.816;20.538;2022-11-20T05:50:27;98881.06;;;8.39;100.00
66176;BME280;52977;44.816;20.538;2022-11-20T05:52:54;98888.75;;;8.37;100.00
66176;BME280;52977;44.816;20.538;2022-11-20T05:55:20;98826.41;;;8.02;100.00
66176;BME280;52977;44.816;20.538;2022-11-20T05:57:46;98879.69;;;8.25;100.00
66176;BME280;52977;44.816;20.538;2022-11-20T06:00:13;98851.97;;;8.01;100.00
66176;BME280;52977;44.816;20.538;2022-11-20T06:02:39;98889.66;;;8.12;100.00
66176;BME280;52977;44.816;20.538;2022-11-20T06:05:06;98849.25;;;8.01;100.00
66176;BME280;52977;44.816;20.538;2022-11-20T06:07:32;98873.72;;;8.01;100.00
66176;BME280;52977;44.816;20.538;2022-11-20T06:09:58;98893.84;;;8.00;100.00
66176;BME280;52977;44.816;20.538;2022-11-20T06:12:24;98862.06;;;8.01;100.00
66176;BME280;52977;44.816;20.538;2022-11-20T06:14:50;98841.09;;;8.01;100.00
66176;BME280;52977;44.816;20.538;2022-11-20T06:17:17;98881.16;;;8.22;100.00
66176;BME280;52977;44.816;20.538;2022-11-20T06:19:43;98881.75;;;7.89;100.00
66176;BME280;52977;44.816;20.538;2022-11-20T06:22:09;98897.03;;;8.11;100.00
66176;BME280;52977;44.816;20.538;2022-11-20T06:24:35;98923.66;;;8.27;100.00
66176;BME280;52977;44.816;20.538;2022-11-20T06:27:01;98933.44;;;8.19;100.00
66176;BME280;52977;44.816;20.538;2022-11-20T06:29:27;98962.09;;;8.16;100.00
66176;BME280;52977;44.816;20.538;2022-11-20T06:31:54;98950.91;;;8.18;100.00
66176;BME280;52977;44.816;20.538;2022-11-20T06:34:20;98954.88;;;8.20;100.00
66176;BME280;52977;44.816;20.538;2022-11-20T06:36:47;98950.41;;;8.16;100.00
66176;BME280;52977;44.816;20.538;2022-11-20T06:39:13;98900.41;;;7.99;100.00
66176;BME280;52977;44.816;20.538;2022-11-20T06:41:39;98901.53;;;7.98;100.00
66176;BME280;52977;44.816;20.538;2022-11-20T06:44:05;98923.56;;;8.14;100.00
66176;BME280;52977;44.816;20.538;2022-11-20T06:46:32;98960.41;;;8.42;100.00
66176;BME280;52977;44.816;20.538;2022-11-20T06:48:58;98954.19;;;8.50;100.00
66176;BME280;52977;44.816;20.538;2022-11-20T06:51:24;98909.59;;;8.25;100.00
66176;BME280;52977;44.816;20.538;2022-11-20T06:53:50;98906.97;;;7.98;100.00
66176;BME280;52977;44.816;20.538;2022-11-20T06:56:17;98953.25;;;8.28;100.00
66176;BME280;52977;44.816;20.538;2022-11-20T06:58:43;98953.25;;;8.28;100.00
66176;BME280;52977;44.816;20.538;2022-11-20T07:01:11;98963.16;;;8.33;100.00
66176;BME280;52977;44.816;20.538;2022-11-20T07:03:38;98960.00;;;8.22;100.00
66176;BME280;52977;44.816;20.538;2022-11-20T07:06:05;98961.31;;;8.07;100.00
66176;BME280;52977;44.816;20.538;2022-11-20T07:08:32;98972.34;;;8.11;100.00
66176;BME280;52977;44.816;20.538;2022-11-20T07:11:01;98999.63;;;8.32;100.00
66176;BME280;52977;44.816;20.538;2022-11-20T07:13:28;99000.78;;;8.22;100.00
66176;BME280;52977;44.816;20.538;2022-11-20T07:15:54;99013.06;;;8.28;100.00
66176;BME280;52977;44.816;20.538;2022-11-20T07:18:21;98995.53;;;8.08;100.00
66176;BME280;52977;44.816;20.538;2022-11-20T07:20:47;99016.56;;;8.29;100.00
66176;BME280;52977;44.816;20.538;2022-11-20T07:23:13;99019.63;;;8.45;100.00
66176;BME280;52977;44.816;20.538;2022-11-20T07:25:39;99017.03;;;8.39;100.00
66176;BME280;52977;44.816;20.538;2022-11-20T07:28:06;99032.28;;;8.32;100.00
66176;BME280;52977;44.816;20.538;2022-11-20T07:30:32;98953.53;;;7.62;100.00
66176;BME280;52977;44.816;20.538;2022-11-20T07:32:58;99040.28;;;8.19;100.00
66176;BME280;52977;44.816;20.538;2022-11-20T07:35:25;99047.34;;;8.20;100.00
66176;BME280;52977;44.816;20.538;2022-11-20T07:37:51;99010.06;;;8.03;100.00
66176;BME280;52977;44.816;20.538;2022-11-20T07:40:17;99009.63;;;7.93;100.00
66176;BME280;52977;44.816;20.538;2022-11-20T07:42:48;99030.06;;;8.08;100.00
66176;BME280;52977;44.816;20.538;2022-11-20T07:45:14;98988.69;;;7.67;100.00
66176;BME280;52977;44.816;20.538;2022-11-20T07:47:41;99026.72;;;7.67;100.00
66176;BME280;52977;44.816;20.538;2022-11-20T07:50:07;99068.94;;;7.82;100.00
66176;BME280;52977;44.816;20.538;2022-11-20T07:52:33;99073.22;;;7.74;100.00
66176;BME280;52977;44.816;20.538;2022-11-20T07:55:00;99075.47;;;7.72;100.00
66176;BME280;52977;44.816;20.538;2022-11-20T07:57:26;99087.78;;;7.87;100.00
66176;BME280;52977;44.816;20.538;2022-11-20T07:59:52;99072.56;;;7.68;100.00
66176;BME280;52977;44.816;20.538;2022-11-20T08:02:18;99078.00;;;7.68;100.00
66176;BME280;52977;44.816;20.538;2022-11-20T08:04:44;99094.16;;;7.74;100.00
66176;BME280;52977;44.816;20.538;2022-11-20T08:07:10;99096.84;;;7.56;100.00
66176;BME280;52977;44.816;20.538;2022-11-20T08:09:37;99101.47;;;7.47;100.00
66176;BME280;52977;44.816;20.538;2022-11-20T08:12:03;99113.91;;;7.48;100.00
66176;BME280;52977;44.816;20.538;2022-11-20T08:14:47;98972.47;;;6.52;100.00
66176;BME280;52977;44.816;20.538;2022-11-20T08:17:13;99095.09;;;7.51;100.00
66176;BME280;52977;44.816;20.538;2022-11-20T08:19:39;99115.19;;;7.50;100.00
66176;BME280;52977;44.816;20.538;2022-11-20T08:22:04;99102.25;;;7.47;100.00
66176;BME280;52977;44.816;20.538;2022-11-20T08:24:31;99078.59;;;7.48;100.00
66176;BME280;52977;44.816;20.538;2022-11-20T08:26:58;99117.81;;;7.73;100.00
66176;BME280;52977;44.816;20.538;2022-11-20T08:29:28;99117.47;;;7.66;100.00
66176;BME280;52977;44.816;20.538;2022-11-20T08:31:54;99112.69;;;7.63;100.00
66176;BME280;52977;44.816;20.538;2022-11-20T08:34:20;99106.84;;;7.29;100.00
66176;BME280;52977;44.816;20.538;2022-11-20T08:36:46;99092.28;;;7.25;100.00
66176;BME280;52977;44.816;20.538;2022-11-20T08:39:13;99070.06;;;7.14;100.00
66176;BME280;52977;44.816;20.538;2022-11-20T08:41:39;99126.66;;;7.30;100.00
66176;BME280;52977;44.816;20.538;2022-11-20T08:44:07;99116.72;;;7.25;100.00
66176;BME280;52977;44.816;20.538;2022-11-20T08:46:38;99129.19;;;7.26;100.00
66176;BME280;52977;44.816;20.538;2022-11-20T08:49:09;99095.22;;;6.97;100.00
66176;BME280;52977;44.816;20.538;2022-11-20T08:51:37;99097.34;;;7.00;100.00
66176;BME280;52977;44.816;20.538;2022-11-20T08:54:04;99114.19;;;7.20;100.00
66176;BME280;52977;44.816;20.538;2022-11-20T08:56:31;99111.94;;;7.31;100.00
66176;BME280;52977;44.816;20.538;2022-11-20T08:58:58;99110.75;;;7.06;100.00
66176;BME280;52977;44.816;20.538;2022-11-20T09:01:28;99045.41;;;6.53;100.00
66176;BME280;52977;44.816;20.538;2022-11-20T09:03:56;99125.41;;;7.05;100.00
66176;BME280;52977;44.816;20.538;2022-11-20T09:06:22;99127.94;;;6.92;100.00
66176;BME280;52977;44.816;20.538;2022-11-20T09:08:54;99124.19;;;7.11;100.00
66176;BME280;52977;44.816;20.538;2022-11-20T09:11:21;99106.84;;;6.89;100.00
66176;BME280;52977;44.816;20.538;2022-11-20T09:13:47;99124.34;;;7.14;100.00
66176;BME280;52977;44.816;20.538;2022-11-20T09:16:13;99137.41;;;7.04;100.00
66176;BME280;52977;44.816;20.538;2022-11-20T09:18:39;99140.19;;;7.21;100.00
66176;BME280;52977;44.816;20.538;2022-11-20T09:21:11;99147.84;;;7.19;100.00
66176;BME280;52977;44.816;20.538;2022-11-20T09:23:38;99120.94;;;7.00;100.00
66176;BME280;52977;44.816;20.538;2022-11-20T09:26:09;99115.84;;;7.07;100.00
66176;BME280;52977;44.816;20.538;2022-11-20T09:28:36;99117.78;;;7.07;100.00
66176;BME280;52977;44.816;20.538;2022-11-20T09:31:30;99124.09;;;6.93;100.00
66176;BME280;52977;44.816;20.538;2022-11-20T09:33:56;99124.00;;;7.07;100.00
66176;BME280;52977;44.816;20.538;2022-11-20T09:36:22;99090.16;;;6.73;100.00
66176;BME280;52977;44.816;20.538;2022-11-20T09:38:48;99080.31;;;6.77;100.00
66176;BME280;52977;44.816;20.538;2022-11-20T09:41:36;99128.00;;;7.10;100.00
66176;BME280;52977;44.816;20.538;2022-11-20T09:55:36;99141.69;;;7.05;100.00
66176;BME280;52977;44.816;20.538;2022-11-20T09:58:06;99144.91;;;7.07;100.00
66176;BME280;52977;44.816;20.538;2022-11-20T10:00:35;99140.81;;;7.18;100.00
66176;BME280;52977;44.816;20.538;2022-11-20T10:03:11;99137.13;;;7.14;100.00
66176;BME280;52977;44.816;20.538;2022-11-20T10:05:47;99154.41;;;7.27;100.00
66176;BME280;52977;44.816;20.538;2022-11-20T10:08:32;99148.50;;;7.16;100.00
66176;BME280;52977;44.816;20.538;2022-11-20T10:11:17;99020.66;;;6.23;100.00
66176;BME280;52977;44.816;20.538;2022-11-20T10:14:10;99163.56;;;6.99;100.00
66176;BME280;52977;44.816;20.538;2022-11-20T10:25:14;99144.81;;;7.21;100.00
66176;BME280;52977;44.816;20.538;2022-11-20T10:30:12;99129.03;;;6.91;100.00
66176;BME280;52977;44.816;20.538;2022-11-20T10:32:42;99142.03;;;7.03;100.00
66176;BME280;52977;44.816;20.538;2022-11-20T10:38:19;99151.41;;;6.97;100.00
66176;BME280;52977;44.816;20.538;2022-11-20T10:40:55;99153.03;;;6.98;100.00
66176;BME280;52977;44.816;20.538;2022-11-20T10:43:46;99151.59;;;7.00;100.00
66176;BME280;52977;44.816;20.538;2022-11-20T10:46:18;99104.78;;;6.63;100.00
66176;BME280;52977;44.816;20.538;2022-11-20T10:48:46;99119.66;;;6.66;100.00
66176;BME280;52977;44.816;20.538;2022-11-20T10:54:29;99161.00;;;6.72;100.00
66176;BME280;52977;44.816;20.538;2022-11-20T10:57:11;99128.50;;;6.49;100.00
66176;BME280;52977;44.816;20.538;2022-11-20T11:02:19;99133.03;;;6.62;100.00
66176;BME280;52977;44.816;20.538;2022-11-20T11:04:48;99168.25;;;6.85;100.00
66176;BME280;52977;44.816;20.538;2022-11-20T11:07:24;99171.47;;;6.87;100.00
66176;BME280;52977;44.816;20.538;2022-11-20T11:09:54;99179.50;;;6.92;100.00
66176;BME280;52977;44.816;20.538;2022-11-20T11:12:24;99178.81;;;6.64;100.00
66176;BME280;52977;44.816;20.538;2022-11-20T11:14:53;99181.53;;;6.64;100.00
66176;BME280;52977;44.816;20.538;2022-11-20T11:17:30;99186.53;;;6.71;100.00
66176;BME280;52977;44.816;20.538;2022-11-20T11:20:04;99171.34;;;6.70;100.00
66176;BME280;52977;44.816;20.538;2022-11-20T11:22:34;99110.09;;;6.23;100.00
66176;BME280;52977;44.816;20.538;2022-11-20T11:25:19;99173.31;;;6.78;100.00
66176;BME280;52977;44.816;20.538;2022-11-20T11:27:47;99136.13;;;6.47;100.00
66176;BME280;52977;44.816;20.538;2022-11-20T11:30:15;99173.03;;;6.57;100.00
66176;BME280;52977;44.816;20.538;2022-11-20T11:32:42;99107.75;;;6.08;100.00
66176;BME280;52977;44.816;20.538;2022-11-20T11:37:46;99115.16;;;6.39;100.00
66176;BME280;52977;44.816;20.538;2022-11-20T11:40:14;99149.19;;;6.67;100.00
66176;BME280;52977;44.816;20.538;2022-11-20T11:43:05;99158.31;;;6.49;100.00
66176;BME280;52977;44.816;20.538;2022-11-20T11:45:29;99161.69;;;6.55;100.00
66176;BME280;52977;44.816;20.538;2022-11-20T11:48:00;99111.81;;;6.19;100.00
66176;BME280;52977;44.816;20.538;2022-11-20T11:50:29;99167.44;;;6.53;100.00
66176;BME280;52977;44.816;20.538;2022-11-20T11:53:13;99024.00;;;5.61;100.00
66176;BME280;52977;44.816;20.538;2022-11-20T11:55:47;99172.53;;;6.55;100.00
66176;BME280;52977;44.816;20.538;2022-11-20T11:58:21;99185.91;;;6.51;100.00
66176;BME280;52977;44.816;20.538;2022-11-20T12:00:58;99170.38;;;6.43;100.00
66176;BME280;52977;44.816;20.538;2022-11-20T12:03:35;99150.59;;;6.20;100.00
66176;BME280;52977;44.816;20.538;2022-11-20T12:06:13;99168.00;;;6.27;100.00
66176;BME280;52977;44.816;20.538;2022-11-20T12:08:44;99177.44;;;6.30;100.00
66176;BME280;52977;44.816;20.538;2022-11-20T12:14:09;99174.69;;;6.44;100.00
66176;BME280;52977;44.816;20.538;2022-11-20T12:16:38;99160.63;;;6.42;100.00
66176;BME280;52977;44.816;20.538;2022-11-20T12:19:13;99144.72;;;6.26;100.00
66176;BME280;52977;44.816;20.538;2022-11-20T12:30:16;99142.59;;;6.01;100.00
66176;BME280;52977;44.816;20.538;2022-11-20T12:38:53;99209.97;;;6.30;100.00
66176;BME280;52977;44.816;20.538;2022-11-20T12:45:20;99209.56;;;6.00;100.00
66176;BME280;52977;44.816;20.538;2022-11-20T12:53:50;99189.75;;;5.86;100.00
66176;BME280;52977;44.816;20.538;2022-11-20T13:08:04;99234.50;;;6.11;100.00
66176;BME280;52977;44.816;20.538;2022-11-20T13:10:49;99224.38;;;6.03;100.00
66176;BME280;52977;44.816;20.538;2022-11-20T13:13:24;99235.13;;;6.08;100.00
66176;BME280;52977;44.816;20.538;2022-11-20T13:15:56;99237.81;;;6.08;100.00
66176;BME280;52977;44.816;20.538;2022-11-20T13:18:26;99238.59;;;5.94;100.00
66176;BME280;52977;44.816;20.538;2022-11-20T13:20:53;99239.13;;;6.10;100.00
66176;BME280;52977;44.816;20.538;2022-11-20T13:23:24;99180.25;;;5.74;100.00
66176;BME280;52977;44.816;20.538;2022-11-20T13:26:05;99237.34;;;6.06;100.00
66176;BME280;52977;44.816;20.538;2022-11-20T13:28:32;99227.28;;;6.06;100.00
66176;BME280;52977;44.816;20.538;2022-11-20T13:30:58;99213.75;;;6.06;100.00
66176;BME280;52977;44.816;20.538;2022-11-20T13:33:36;99227.06;;;6.16;100.00
66176;BME280;52977;44.816;20.538;2022-11-20T13:36:07;99223.50;;;6.07;100.00
66176;BME280;52977;44.816;20.538;2022-11-20T13:38:53;99224.47;;;6.11;100.00
66176;BME280;52977;44.816;20.538;2022-11-20T13:41:29;99201.50;;;5.95;100.00
66176;BME280;52977;44.816;20.538;2022-11-20T13:44:24;99232.72;;;6.06;100.00
66176;BME280;52977;44.816;20.538;2022-11-20T13:46:51;99230.09;;;6.01;100.00
66176;BME280;52977;44.816;20.538;2022-11-20T13:49:23;99181.78;;;5.67;100.00
66176;BME280;52977;44.816;20.538;2022-11-20T13:54:41;99218.06;;;6.07;100.00
66176;BME280;52977;44.816;20.538;2022-11-20T14:00:19;99198.41;;;6.02;100.00
66176;BME280;52977;44.816;20.538;2022-11-20T14:02:59;99207.22;;;5.79;100.00
66176;BME280;52977;44.816;20.538;2022-11-20T14:05:27;99225.56;;;5.96;100.00
66176;BME280;52977;44.816;20.538;2022-11-20T14:07:54;99225.06;;;5.94;100.00
66176;BME280;52977;44.816;20.538;2022-11-20T14:10:26;99186.56;;;5.70;100.00
66176;BME280;52977;44.816;20.538;2022-11-20T14:12:53;99194.09;;;5.73;100.00
66176;BME280;52977;44.816;20.538;2022-11-20T14:15:34;99236.53;;;6.05;100.00
66176;BME280;52977;44.816;20.538;2022-11-20T14:18:13;99232.47;;;5.89;100.00
66176;BME280;52977;44.816;20.538;2022-11-20T14:20:40;99228.59;;;6.09;100.00
66176;BME280;52977;44.816;20.538;2022-11-20T14:23:09;99219.88;;;5.98;100.00
66176;BME280;52977;44.816;20.538;2022-11-20T14:25:36;99221.19;;;6.01;100.00